Terminal Aerodrome Forecast
Issued by NWS Portland, OR

Home | Current Version | Previous Version | Text Only | Print | Product List | Glossary On
Versions: 1 2 3 4 5 6 7 8 9 10 11 12 13 14 15
000
FTUS46 KPQR 181739
TAFEUG
TAF
KEUG 181739Z 1818/1918 22014KT 5SM -SHRASN SCT018 OVC025
     FM181900 24015G24KT 5SM -RA BKN015 OVC025
     FM190300 21010KT 5SM -SHRASN BKN015
     FM190600 26006KT P6SM VCSH BKN020
     FM191200 32005KT 6SM BR OVC015=

USA.gov is the U.S. government's official web portal to all federal, state and local government web resources and services.